createdAt,value
2023-02-08T00:01:48.616Z,17.70
2023-02-08T00:04:15.458Z,15.43
2023-02-08T00:06:42.116Z,19.13
2023-02-08T00:09:08.986Z,16.98
2023-02-08T00:11:35.877Z,17.35
2023-02-08T00:14:02.771Z,17.88
2023-02-08T00:16:29.505Z,16.13
2023-02-08T00:18:56.231Z,13.75
2023-02-08T00:21:22.825Z,17.40
2023-02-08T00:23:49.924Z,16.83
2023-02-08T00:26:16.734Z,15.85
2023-02-08T00:28:44.402Z,19.08
2023-02-08T00:31:11.044Z,16.27
2023-02-08T00:33:37.663Z,16.02
2023-02-08T00:36:06.878Z,15.68
2023-02-08T00:38:33.476Z,18.67
2023-02-08T00:41:00.026Z,15.63
2023-02-08T00:43:26.593Z,15.60
2023-02-08T00:45:55.173Z,15.40
2023-02-08T00:48:24.150Z,14.98
2023-02-08T00:51:13.468Z,15.02
2023-02-08T00:53:42.978Z,17.77
2023-02-08T00:56:10.831Z,17.73
2023-02-08T00:58:37.715Z,17.52
2023-02-08T01:01:05.220Z,15.65
2023-02-08T01:03:34.452Z,18.48
2023-02-08T01:06:03.575Z,16.00
2023-02-08T01:08:32.489Z,16.88
2023-02-08T01:11:13.123Z,16.48
2023-02-08T01:13:41.171Z,16.75
2023-02-08T01:16:13.608Z,17.73
2023-02-08T01:18:41.845Z,13.50
2023-02-08T01:21:10.662Z,13.60
2023-02-08T01:23:37.509Z,15.23
2023-02-08T01:26:05.162Z,16.50
2023-02-08T01:28:32.240Z,13.98
2023-02-08T01:30:59.302Z,15.75
2023-02-08T01:33:26.025Z,15.98
2023-02-08T01:35:53.191Z,15.95
2023-02-08T01:38:20.185Z,17.50
2023-02-08T01:40:47.874Z,16.10
2023-02-08T01:43:25.129Z,19.48
2023-02-08T01:45:52.496Z,15.25
2023-02-08T01:48:24.089Z,15.65
2023-02-08T01:50:55.734Z,13.20
2023-02-08T01:53:22.741Z,17.73
2023-02-08T01:55:52.299Z,18.50
2023-02-08T01:58:19.943Z,17.08
2023-02-08T02:00:47.404Z,16.17
2023-02-08T02:03:14.544Z,18.33
2023-02-08T02:05:44.287Z,15.45
2023-02-08T02:08:11.591Z,17.77
2023-02-08T02:10:39.486Z,15.15
2023-02-08T02:13:08.643Z,21.20
2023-02-08T02:15:35.485Z,20.80
2023-02-08T02:18:05.281Z,16.48
2023-02-08T02:20:57.522Z,18.60
2023-02-08T02:23:53.568Z,17.10
2023-02-08T02:26:54.829Z,16.98
2023-02-08T02:29:27.355Z,16.48
2023-02-08T02:32:23.194Z,17.35
2023-02-08T02:35:09.053Z,16.17
2023-02-08T02:37:42.748Z,15.50
2023-02-08T02:40:35.695Z,16.17
2023-02-08T02:43:32.773Z,15.93
2023-02-08T02:46:25.026Z,19.98
2023-02-08T02:49:00.860Z,18.52
2023-02-08T02:51:28.828Z,17.40
2023-02-08T02:54:08.878Z,19.10
2023-02-08T02:56:42.849Z,18.20
2023-02-08T02:59:11.281Z,16.25
2023-02-08T03:01:39.117Z,19.20
2023-02-08T03:04:17.609Z,16.80
2023-02-08T03:07:19.379Z,17.20
2023-02-08T03:10:07.558Z,15.55
2023-02-08T03:12:49.402Z,18.10
2023-02-08T03:15:27.982Z,14.77
2023-02-08T03:18:00.150Z,17.42
2023-02-08T03:20:32.484Z,15.48
2023-02-08T03:23:11.194Z,21.40
2023-02-08T03:26:05.836Z,23.70
2023-02-08T03:29:28.001Z,18.30
2023-02-08T03:32:04.451Z,21.40
2023-02-08T03:34:45.044Z,17.85
2023-02-08T03:37:17.987Z,19.33
2023-02-08T03:39:46.994Z,16.42
2023-02-08T03:42:17.904Z,15.82
2023-02-08T03:44:54.265Z,16.80
2023-02-08T03:47:24.057Z,17.30
2023-02-08T03:49:53.130Z,17.20
2023-02-08T03:52:19.782Z,15.63
2023-02-08T03:54:56.170Z,16.92
2023-02-08T03:57:25.619Z,12.52
2023-02-08T04:00:05.018Z,20.65
2023-02-08T04:02:42.581Z,17.20
2023-02-08T04:05:09.289Z,14.73
2023-02-08T04:07:35.851Z,18.75
2023-02-08T04:10:03.316Z,18.00
2023-02-08T04:12:30.144Z,18.02
2023-02-08T04:14:56.820Z,16.67
2023-02-08T04:17:23.408Z,18.65
2023-02-08T04:19:50.157Z,16.70
2023-02-08T04:22:16.811Z,17.23
2023-02-08T04:24:43.398Z,17.27
2023-02-08T04:27:10.017Z,14.68
2023-02-08T04:29:36.580Z,15.48
2023-02-08T04:32:03.747Z,14.15
2023-02-08T04:34:30.355Z,14.57
2023-02-08T04:36:57.051Z,16.90
2023-02-08T04:39:23.681Z,12.38
2023-02-08T04:41:50.257Z,15.57
2023-02-08T04:44:16.949Z,14.45
2023-02-08T04:46:43.683Z,15.85
2023-02-08T04:49:10.421Z,16.17
2023-02-08T04:51:37.188Z,15.13
2023-02-08T04:54:04.883Z,16.73
2023-02-08T04:56:31.529Z,17.77
2023-02-08T04:58:58.619Z,15.43
2023-02-08T05:01:25.291Z,19.23
2023-02-08T05:03:52.054Z,16.73
2023-02-08T05:06:18.702Z,16.58
2023-02-08T05:08:45.343Z,14.68
2023-02-08T05:11:12.527Z,18.98
2023-02-08T05:13:39.110Z,18.48
2023-02-08T05:16:05.869Z,13.60
2023-02-08T05:18:32.485Z,17.67
2023-02-08T05:21:00.956Z,15.93
2023-02-08T05:23:28.092Z,13.77
2023-02-08T05:25:54.798Z,19.92
2023-02-08T05:28:22.320Z,15.15
2023-02-08T05:30:49.358Z,16.92
2023-02-08T05:33:16.197Z,14.45
2023-02-08T05:35:44.937Z,16.95
2023-02-08T05:38:11.619Z,20.40
2023-02-08T05:40:38.328Z,16.75
2023-02-08T05:43:05.212Z,12.95
2023-02-08T05:45:31.834Z,17.08
2023-02-08T05:47:58.451Z,15.93
2023-02-08T05:50:25.059Z,14.13
2023-02-08T05:52:51.649Z,16.05
2023-02-08T05:55:18.246Z,15.82
2023-02-08T05:57:44.844Z,17.38
2023-02-08T06:00:12.038Z,16.73
2023-02-08T06:02:45.063Z,16.35
2023-02-08T06:05:11.646Z,16.50
2023-02-08T06:07:38.309Z,18.10
2023-02-08T06:10:05.219Z,22.05
2023-02-08T06:12:31.884Z,14.93
2023-02-08T06:14:58.457Z,19.15
2023-02-08T06:17:25.080Z,17.90
2023-02-08T06:19:51.650Z,17.90
2023-02-08T06:22:18.198Z,17.33
2023-02-08T06:24:44.742Z,16.10
2023-02-08T06:27:11.339Z,23.20
2023-02-08T06:29:37.919Z,19.02
2023-02-08T06:32:04.804Z,21.90
2023-02-08T06:34:32.030Z,15.70
2023-02-08T06:37:02.070Z,19.92
2023-02-08T06:39:29.642Z,14.20
2023-02-08T06:41:56.269Z,18.42
2023-02-08T06:44:23.089Z,15.27
2023-02-08T06:46:49.880Z,17.85
2023-02-08T06:49:16.524Z,14.18
2023-02-08T06:51:43.111Z,16.08
2023-02-08T06:54:10.095Z,18.08
2023-02-08T06:56:36.773Z,15.88
2023-02-08T06:59:03.672Z,17.92
2023-02-08T07:01:30.488Z,12.52
2023-02-08T07:03:57.108Z,16.67
2023-02-08T07:06:23.777Z,14.27
2023-02-08T07:08:50.408Z,17.30
2023-02-08T07:11:19.586Z,15.50
2023-02-08T07:13:48.349Z,17.23
2023-02-08T07:16:15.013Z,15.25
2023-02-08T07:18:41.655Z,21.30
2023-02-08T07:21:08.362Z,14.98
2023-02-08T07:23:34.930Z,16.05
2023-02-08T07:26:06.602Z,15.77
2023-02-08T07:28:33.455Z,20.70
2023-02-08T07:31:00.164Z,17.00
2023-02-08T07:33:26.869Z,14.85
2023-02-08T07:35:53.565Z,19.83
2023-02-08T07:38:20.948Z,13.75
2023-02-08T07:40:47.893Z,14.48
2023-02-08T07:43:14.720Z,16.33
2023-02-08T07:45:50.946Z,16.92
2023-02-08T07:48:18.152Z,17.83
2023-02-08T07:50:44.815Z,14.00
2023-02-08T07:53:11.383Z,18.23
2023-02-08T07:55:37.934Z,13.15
2023-02-08T07:58:04.529Z,16.20
2023-02-08T08:00:31.315Z,18.10
2023-02-08T08:02:57.868Z,12.80
2023-02-08T08:05:25.423Z,13.05
2023-02-08T08:07:51.997Z,12.93
2023-02-08T08:10:18.716Z,13.35
2023-02-08T08:12:45.330Z,11.77
2023-02-08T08:15:11.982Z,13.15
2023-02-08T08:17:42.051Z,12.90
2023-02-08T08:20:10.317Z,13.73
2023-02-08T08:22:37.166Z,12.80
2023-02-08T08:25:03.933Z,13.50
2023-02-08T08:27:30.605Z,11.13
2023-02-08T08:29:57.187Z,15.40
2023-02-08T08:32:23.911Z,13.65
2023-02-08T08:34:50.529Z,13.75
2023-02-08T08:37:17.138Z,11.13
2023-02-08T08:39:43.727Z,15.07
2023-02-08T08:42:10.570Z,11.57
2023-02-08T08:44:37.288Z,11.35
2023-02-08T08:47:03.898Z,14.32
2023-02-08T08:49:30.490Z,13.55
2023-02-08T08:51:57.602Z,13.98
2023-02-08T08:54:24.201Z,15.23
2023-02-08T08:56:50.771Z,14.10
2023-02-08T08:59:17.621Z,16.20
2023-02-08T09:01:44.336Z,13.43
2023-02-08T09:04:11.492Z,14.45
2023-02-08T09:06:38.742Z,14.20
2023-02-08T09:09:05.930Z,14.95
2023-02-08T09:11:33.232Z,14.18
2023-02-08T09:14:04.441Z,10.32
2023-02-08T09:16:32.540Z,12.10
2023-02-08T09:19:06.638Z,13.32
2023-02-08T09:21:33.871Z,11.82
2023-02-08T09:24:04.205Z,11.75
2023-02-08T09:28:57.278Z,12.55
2023-02-08T09:31:30.191Z,12.98
2023-02-08T09:34:00.016Z,12.75
2023-02-08T09:36:29.782Z,12.95
2023-02-08T09:39:03.733Z,11.13
2023-02-08T09:41:51.567Z,11.48
2023-02-08T09:44:47.211Z,13.27
2023-02-08T09:47:19.483Z,13.57
2023-02-08T09:49:58.817Z,13.20
2023-02-08T09:52:38.432Z,10.73
2023-02-08T09:55:35.543Z,11.67
2023-02-08T09:58:13.883Z,12.75
2023-02-08T10:00:42.554Z,11.40
2023-02-08T10:03:29.500Z,12.43
2023-02-08T10:05:57.063Z,10.82
2023-02-08T10:08:31.521Z,11.07
2023-02-08T10:11:09.364Z,13.02
2023-02-08T10:13:58.842Z,13.63
2023-02-08T10:16:37.782Z,11.18
2023-02-08T10:19:14.736Z,11.88
2023-02-08T10:22:00.954Z,10.98
2023-02-08T10:24:30.698Z,9.57
2023-02-08T10:27:22.442Z,10.65
2023-02-08T10:30:03.621Z,11.18
2023-02-08T10:32:50.652Z,10.18
2023-02-08T10:35:26.554Z,13.02
2023-02-08T10:37:54.409Z,12.40
2023-02-08T10:40:31.981Z,10.65
2023-02-08T10:43:10.277Z,9.90
2023-02-08T10:46:15.601Z,11.05
2023-02-08T10:49:08.217Z,11.60
2023-02-08T10:51:34.962Z,9.65
2023-02-08T10:54:01.657Z,11.95
2023-02-08T10:56:34.830Z,9.27
2023-02-08T10:59:07.083Z,8.18
2023-02-08T11:01:33.829Z,9.65
2023-02-08T11:04:07.639Z,8.95
2023-02-08T11:06:34.771Z,9.55
2023-02-08T11:09:01.461Z,9.45
2023-02-08T11:11:38.045Z,9.73
2023-02-08T11:14:13.950Z,7.55
2023-02-08T11:16:41.481Z,10.82
2023-02-08T11:19:21.561Z,9.13
2023-02-08T11:21:51.451Z,7.80
2023-02-08T11:24:26.988Z,10.75
2023-02-08T11:26:56.206Z,10.23
2023-02-08T11:29:26.171Z,9.77
2023-02-08T11:31:56.565Z,11.07
2023-02-08T11:34:38.761Z,9.63
2023-02-08T11:37:28.723Z,10.10
2023-02-08T11:39:57.457Z,7.88
2023-02-08T11:42:27.256Z,10.93
2023-02-08T11:44:57.334Z,7.50
2023-02-08T11:47:27.888Z,10.35
2023-02-08T11:50:00.981Z,11.40
2023-02-08T11:52:35.574Z,10.50
2023-02-08T11:55:24.611Z,9.45
2023-02-08T11:57:55.776Z,9.40
2023-02-08T12:00:26.279Z,12.32
2023-02-08T12:02:59.045Z,8.70
2023-02-08T12:05:38.366Z,8.63
2023-02-08T12:08:20.333Z,10.15
2023-02-08T12:11:02.215Z,6.63
2023-02-08T12:13:41.640Z,9.73
2023-02-08T12:16:40.230Z,8.53
2023-02-08T12:19:34.950Z,8.23
2023-02-08T12:22:12.335Z,8.13
2023-02-08T12:24:54.160Z,9.88
2023-02-08T12:27:37.790Z,8.95
2023-02-08T12:30:08.486Z,8.77
2023-02-08T12:32:50.436Z,9.63
2023-02-08T12:36:03.522Z,7.78
2023-02-08T12:39:33.726Z,7.55
2023-02-08T12:42:10.179Z,7.38
2023-02-08T12:44:57.784Z,6.15
2023-02-08T12:48:04.613Z,5.90
2023-02-08T12:50:44.740Z,5.38
2023-02-08T12:53:31.330Z,7.20
2023-02-08T12:56:01.292Z,7.90
2023-02-08T12:58:59.191Z,7.00
2023-02-08T13:01:38.479Z,6.53
2023-02-08T13:04:09.418Z,5.82
2023-02-08T13:06:40.127Z,5.18
2023-02-08T13:09:23.441Z,6.22
2023-02-08T13:11:57.169Z,5.45
2023-02-08T13:14:37.297Z,5.85
2023-02-08T13:17:16.125Z,6.30
2023-02-08T13:20:00.364Z,6.95
2023-02-08T13:22:29.324Z,6.50
2023-02-08T13:25:11.643Z,5.43
2023-02-08T13:27:38.364Z,7.35
2023-02-08T13:30:05.689Z,5.72
2023-02-08T13:32:43.538Z,8.65
2023-02-08T13:35:16.203Z,7.13
2023-02-08T13:38:15.755Z,5.13
2023-02-08T13:40:42.799Z,7.70
2023-02-08T13:43:33.106Z,9.32
2023-02-08T13:46:02.015Z,7.80
2023-02-08T13:48:41.713Z,6.90
2023-02-08T13:51:30.778Z,8.13
2023-02-08T13:53:57.443Z,7.15
2023-02-08T13:56:47.215Z,6.28
2023-02-08T13:59:35.354Z,7.50
2023-02-08T14:02:22.200Z,5.93
2023-02-08T14:04:56.361Z,6.35
2023-02-08T14:07:38.760Z,5.47
2023-02-08T14:10:10.245Z,6.18
2023-02-08T14:12:42.707Z,6.88
2023-02-08T14:15:15.461Z,6.38
2023-02-08T14:17:42.994Z,8.40
2023-02-08T14:20:18.863Z,7.15
2023-02-08T14:23:07.537Z,7.22
2023-02-08T14:25:43.944Z,6.88
2023-02-08T14:28:29.544Z,7.80
2023-02-08T14:30:58.451Z,8.93
2023-02-08T14:33:28.549Z,9.93
2023-02-08T14:35:57.443Z,7.10
2023-02-08T14:38:23.923Z,6.03
2023-02-08T14:40:58.071Z,7.75
2023-02-08T14:43:32.104Z,7.03
2023-02-08T14:46:36.841Z,9.23
2023-02-08T14:49:09.361Z,7.28
2023-02-08T14:51:39.050Z,7.30
2023-02-08T14:54:23.628Z,6.13
2023-02-08T14:56:57.405Z,5.82
2023-02-08T14:59:30.027Z,5.72
2023-02-08T15:02:00.113Z,7.07
2023-02-08T15:04:27.445Z,7.53
2023-02-08T15:07:09.030Z,6.50
2023-02-08T15:09:37.644Z,7.20
2023-02-08T15:12:07.865Z,8.35
2023-02-08T15:17:02.006Z,9.38
2023-02-08T15:19:35.718Z,8.60
2023-02-08T15:22:24.334Z,8.45
2023-02-08T15:24:52.837Z,8.18
2023-02-08T15:27:22.371Z,5.85
2023-02-08T15:29:49.202Z,8.00
2023-02-08T15:32:18.393Z,7.35
2023-02-08T15:34:47.027Z,7.43
2023-02-08T15:37:17.842Z,6.88
2023-02-08T15:39:46.071Z,10.10
2023-02-08T15:42:17.557Z,9.13
2023-02-08T15:44:44.716Z,7.20
2023-02-08T15:47:35.926Z,7.63
2023-02-08T15:50:05.399Z,10.20
2023-02-08T15:52:34.737Z,14.05
2023-02-08T15:55:01.941Z,14.07
2023-02-08T15:57:46.745Z,12.07
2023-02-08T16:00:18.016Z,11.55
2023-02-08T16:02:45.068Z,12.68
2023-02-08T16:05:22.741Z,15.30
2023-02-08T16:07:51.671Z,14.05
2023-02-08T16:10:33.834Z,12.38
2023-02-08T16:13:06.354Z,12.10
2023-02-08T16:15:40.770Z,12.73
2023-02-08T16:18:46.246Z,13.30
2023-02-08T16:21:21.916Z,13.07
2023-02-08T16:23:59.115Z,13.50
2023-02-08T16:26:35.381Z,12.98
2023-02-08T16:29:06.278Z,15.43
2023-02-08T16:31:35.356Z,13.95
2023-02-08T16:34:07.408Z,14.32
2023-02-08T16:36:37.246Z,13.43
2023-02-08T16:39:18.838Z,12.55
2023-02-08T16:42:13.952Z,13.52
2023-02-08T16:45:17.020Z,14.65
2023-02-08T16:47:47.236Z,14.32
2023-02-08T16:50:20.612Z,14.02
2023-02-08T16:52:49.841Z,13.55
2023-02-08T16:55:22.450Z,13.63
2023-02-08T16:57:51.943Z,14.48
2023-02-08T17:00:26.150Z,14.37
2023-02-08T17:02:53.393Z,16.30
2023-02-08T17:05:21.803Z,18.40
2023-02-08T17:07:48.980Z,13.82
2023-02-08T17:10:30.272Z,14.68
2023-02-08T17:13:13.399Z,15.70
2023-02-08T17:15:49.407Z,17.45
2023-02-08T17:18:16.334Z,14.32
2023-02-08T17:20:43.176Z,14.15
2023-02-08T17:23:10.075Z,11.65
2023-02-08T17:25:36.976Z,12.85
2023-02-08T17:28:06.251Z,16.65
2023-02-08T17:30:36.125Z,11.95
2023-02-08T17:33:03.945Z,14.57
2023-02-08T17:35:30.920Z,11.73
2023-02-08T17:37:58.104Z,14.38
2023-02-08T17:40:29.529Z,17.15
2023-02-08T17:42:56.123Z,15.63
2023-02-08T17:45:22.992Z,14.63
2023-02-08T17:47:49.606Z,15.43
2023-02-08T17:50:18.673Z,17.75
2023-02-08T17:52:46.211Z,20.58
2023-02-08T17:55:15.064Z,17.33
2023-02-08T17:57:42.816Z,18.60
2023-02-08T18:00:18.090Z,17.17
2023-02-08T18:02:47.078Z,14.02
2023-02-08T18:05:14.952Z,19.02
2023-02-08T18:07:41.638Z,20.98
2023-02-08T18:10:09.654Z,18.70
2023-02-08T18:12:37.237Z,18.50
2023-02-08T18:15:09.694Z,16.70
2023-02-08T18:17:36.442Z,14.80
2023-02-08T18:20:03.341Z,14.95
2023-02-08T18:22:30.021Z,12.75
2023-02-08T18:24:56.672Z,15.50
2023-02-08T18:27:24.952Z,14.95
2023-02-08T18:29:51.871Z,12.23
2023-02-08T18:32:20.180Z,13.68
2023-02-08T18:34:47.211Z,13.40
2023-02-08T18:37:14.722Z,13.82
2023-02-08T18:39:41.522Z,14.98
2023-02-08T18:42:08.257Z,19.77
2023-02-08T18:44:38.514Z,15.48
2023-02-08T18:49:32.403Z,16.38
2023-02-08T18:51:59.097Z,14.20
2023-02-08T18:54:25.738Z,16.70
2023-02-08T18:56:55.876Z,18.73
2023-02-08T18:59:22.973Z,20.50
2023-02-08T19:01:49.594Z,25.48
2023-02-08T19:04:16.504Z,26.77
2023-02-08T19:06:43.526Z,23.65
2023-02-08T19:09:10.149Z,17.38
2023-02-08T19:11:39.163Z,19.88
2023-02-08T19:14:08.461Z,18.85
2023-02-08T19:16:36.700Z,17.30
2023-02-08T19:19:05.226Z,13.80
2023-02-08T19:21:32.510Z,15.10
2023-02-08T19:24:00.587Z,13.15
2023-02-08T19:26:29.441Z,15.63
2023-02-08T19:28:58.960Z,14.27
2023-02-08T19:31:27.178Z,16.35
2023-02-08T19:33:58.451Z,15.30
2023-02-08T19:36:28.643Z,13.45
2023-02-08T19:38:55.850Z,16.90
2023-02-08T19:41:33.148Z,17.05
2023-02-08T19:44:00.834Z,18.10
2023-02-08T19:46:28.338Z,13.65
2023-02-08T19:48:59.800Z,16.80
2023-02-08T19:51:32.049Z,14.93
2023-02-08T19:54:00.732Z,14.68
2023-02-08T19:56:31.042Z,15.95
2023-02-08T20:01:24.255Z,17.75
2023-02-08T20:03:53.257Z,17.48
2023-02-08T20:06:22.148Z,20.80
2023-02-08T20:08:49.148Z,24.13
2023-02-08T20:11:26.872Z,21.50
2023-02-08T20:13:54.826Z,18.95
2023-02-08T20:16:22.027Z,18.50
2023-02-08T20:18:49.867Z,18.90
2023-02-08T20:21:16.940Z,15.93
2023-02-08T20:23:43.820Z,22.67
2023-02-08T20:26:18.505Z,17.42
2023-02-08T20:28:48.371Z,21.40
2023-02-08T20:31:17.978Z,20.88
2023-02-08T20:33:44.837Z,17.00
2023-02-08T20:36:15.331Z,17.92
2023-02-08T20:38:42.241Z,21.15
2023-02-08T20:41:13.128Z,22.52
2023-02-08T20:43:41.234Z,17.60
2023-02-08T20:46:10.915Z,17.63
2023-02-08T20:48:37.660Z,22.13
2023-02-08T20:51:09.526Z,22.67
2023-02-08T20:53:37.778Z,19.13
2023-02-08T20:56:06.182Z,23.83
2023-02-08T20:58:33.095Z,23.42
2023-02-08T21:00:59.719Z,24.98
2023-02-08T21:03:26.336Z,21.90
2023-02-08T21:05:53.450Z,23.35
2023-02-08T21:08:20.098Z,21.80
2023-02-08T21:10:46.886Z,20.70
2023-02-08T21:13:13.589Z,21.63
2023-02-08T21:15:43.836Z,39.35
2023-02-08T21:18:11.439Z,28.63
2023-02-08T21:20:41.035Z,30.67
2023-02-08T21:23:07.652Z,31.13
2023-02-08T21:25:34.411Z,22.42
2023-02-08T21:28:01.211Z,24.52
2023-02-08T21:30:27.964Z,23.33
2023-02-08T21:32:54.632Z,26.02
2023-02-08T21:35:21.343Z,23.85
2023-02-08T21:37:47.912Z,30.73
2023-02-08T21:40:14.767Z,23.60
2023-02-08T21:42:41.389Z,29.13
2023-02-08T21:45:09.840Z,24.88
2023-02-08T21:47:36.739Z,28.55
2023-02-08T21:50:22.235Z,26.63
2023-02-08T21:53:08.182Z,23.85
2023-02-08T21:55:35.006Z,27.65
2023-02-08T21:58:01.734Z,23.25
2023-02-08T22:00:28.393Z,28.17
2023-02-08T22:02:54.968Z,24.15
2023-02-08T22:05:40.384Z,19.60
2023-02-08T22:08:07.155Z,21.13
2023-02-08T22:10:33.747Z,22.48
2023-02-08T22:13:00.538Z,23.02
2023-02-08T22:15:28.781Z,21.65
2023-02-08T22:17:57.606Z,19.60
2023-02-08T22:20:24.217Z,16.38
2023-02-08T22:22:54.273Z,24.38
2023-02-08T22:25:22.467Z,22.20
2023-02-08T22:27:49.154Z,22.02
2023-02-08T22:30:17.841Z,21.88
2023-02-08T22:32:46.543Z,21.90
2023-02-08T22:35:13.711Z,17.98
2023-02-08T22:37:40.305Z,26.75
2023-02-08T22:40:07.712Z,22.48
2023-02-08T22:42:34.361Z,26.08
2023-02-08T22:45:00.939Z,24.48
2023-02-08T22:47:27.528Z,23.60
2023-02-08T22:49:57.122Z,21.83
2023-02-08T22:52:25.627Z,22.58
2023-02-08T22:54:52.848Z,20.70
2023-02-08T22:57:19.533Z,22.05
2023-02-08T22:59:47.522Z,21.50
2023-02-08T23:02:17.047Z,21.15
2023-02-08T23:04:43.740Z,20.55
2023-02-08T23:07:10.544Z,22.05
2023-02-08T23:09:37.150Z,23.67
2023-02-08T23:12:03.799Z,21.17
2023-02-08T23:14:30.526Z,22.80
2023-02-08T23:16:58.430Z,21.13
2023-02-08T23:19:25.289Z,22.55
2023-02-08T23:21:53.221Z,21.33
2023-02-08T23:24:19.877Z,21.10
2023-02-08T23:26:47.598Z,24.10
2023-02-08T23:29:14.152Z,23.20
2023-02-08T23:31:41.165Z,21.77
2023-02-08T23:34:07.918Z,24.23
2023-02-08T23:36:34.520Z,25.42
2023-02-08T23:39:01.277Z,20.00
2023-02-08T23:41:28.031Z,22.83
2023-02-08T23:43:54.653Z,26.00
2023-02-08T23:46:23.725Z,23.75
2023-02-08T23:48:50.477Z,21.67
2023-02-08T23:51:18.438Z,22.13
2023-02-08T23:53:45.221Z,21.50
2023-02-08T23:56:11.805Z,20.33
2023-02-08T23:58:39.090Z,24.48
